createdAt,value
2018-07-04T00:00:08.298Z,95.90
2018-07-04T00:02:47.898Z,95.30
2018-07-04T00:05:27.501Z,95.60
2018-07-04T00:08:07.177Z,95.30
2018-07-04T00:10:46.742Z,94.60
2018-07-04T00:13:26.437Z,94.50
2018-07-04T00:16:06.181Z,95.40
2018-07-04T00:18:45.834Z,95.30
2018-07-04T00:21:25.571Z,95.70
2018-07-04T00:24:05.174Z,95.60
2018-07-04T00:26:44.971Z,95.10
2018-07-04T00:31:58.349Z,94.90
2018-07-04T00:34:38.141Z,94.70
2018-07-04T00:37:17.798Z,95.10
2018-07-04T00:39:57.461Z,95.80
2018-07-04T00:42:37.145Z,96.10
2018-07-04T00:45:16.680Z,96.40
2018-07-04T00:47:56.505Z,96.70
2018-07-04T00:50:36.135Z,96.80
2018-07-04T00:53:15.625Z,96.90
2018-07-04T00:55:55.370Z,96.80
2018-07-04T00:58:35.089Z,96.80
2018-07-04T01:01:14.770Z,97.20
2018-07-04T01:03:54.474Z,97.30
2018-07-04T01:06:34.157Z,97.30
2018-07-04T01:09:13.713Z,97.40
2018-07-04T01:11:53.416Z,97.60
2018-07-04T01:14:33.215Z,97.80
2018-07-04T01:17:12.780Z,97.50
2018-07-04T01:19:52.869Z,97.60
2018-07-04T01:22:32.586Z,97.70
2018-07-04T01:25:12.407Z,97.70
2018-07-04T01:27:51.926Z,97.80
2018-07-04T01:30:31.597Z,98.10
2018-07-04T01:35:44.882Z,97.00
2018-07-04T01:38:24.517Z,97.70
2018-07-04T01:41:04.138Z,97.50
2018-07-04T01:43:44.185Z,97.90
2018-07-04T01:46:24.021Z,98.40
2018-07-04T01:49:03.770Z,98.90
2018-07-04T01:54:17.156Z,98.40
2018-07-04T01:56:56.794Z,98.80
2018-07-04T01:59:36.633Z,99.20
2018-07-04T02:02:17.112Z,99.70
2018-07-04T02:04:56.850Z,99.60
2018-07-04T02:07:36.332Z,98.90
2018-07-04T02:10:15.975Z,98.90
2018-07-04T02:12:55.701Z,98.30
2018-07-04T02:15:35.585Z,98.20
2018-07-04T02:18:15.263Z,99.10
2018-07-04T02:20:55.653Z,99.40
2018-07-04T02:23:35.378Z,99.90
2018-07-04T02:26:14.910Z,99.90
2018-07-04T02:28:54.489Z,99.80
2018-07-04T02:31:34.180Z,98.60
2018-07-04T02:34:13.935Z,99.60
2018-07-04T02:36:53.610Z,99.40
2018-07-04T02:39:33.326Z,99.90
2018-07-04T02:42:12.893Z,99.40
2018-07-04T02:44:52.651Z,99.50
2018-07-04T02:47:32.201Z,99.60
2018-07-04T02:50:11.823Z,99.40
2018-07-04T02:52:51.553Z,99.50
2018-07-04T02:55:32.148Z,99.90
2018-07-04T02:58:11.786Z,99.70
2018-07-04T03:00:51.493Z,99.60
2018-07-04T03:03:31.255Z,98.80
2018-07-04T03:06:10.904Z,99.40
2018-07-04T03:08:50.748Z,99.40
2018-07-04T03:11:30.474Z,98.70
2018-07-04T03:14:10.031Z,98.70
2018-07-04T03:16:49.667Z,99.10
2018-07-04T03:19:29.212Z,99.90
2018-07-04T03:22:08.961Z,99.90
2018-07-04T03:24:48.669Z,99.90
2018-07-04T03:27:28.441Z,99.90
2018-07-04T03:30:08.232Z,99.90
2018-07-04T03:32:48.037Z,99.90
2018-07-04T03:35:27.582Z,99.90
2018-07-04T03:38:07.453Z,99.90
2018-07-04T03:40:47.550Z,99.90
2018-07-04T03:43:27.318Z,99.90
2018-07-04T03:46:06.861Z,99.90
2018-07-04T03:48:46.482Z,99.90
2018-07-04T03:51:26.125Z,99.90
2018-07-04T03:54:05.906Z,99.90
2018-07-04T03:56:45.717Z,99.90
2018-07-04T03:59:25.327Z,99.90
2018-07-04T04:02:04.967Z,99.90
2018-07-04T04:04:44.470Z,99.90
2018-07-04T04:07:24.146Z,99.90
2018-07-04T04:10:03.715Z,99.90
2018-07-04T04:12:43.257Z,99.90
2018-07-04T04:15:22.896Z,99.90
2018-07-04T04:18:02.506Z,99.90
2018-07-04T04:20:42.168Z,99.90
2018-07-04T04:23:21.893Z,99.90
2018-07-04T04:26:01.500Z,99.90
2018-07-04T04:28:41.101Z,99.90
2018-07-04T04:31:20.751Z,99.90
2018-07-04T04:34:00.480Z,99.90
2018-07-04T04:36:40.135Z,99.90
2018-07-04T04:41:53.364Z,99.90
2018-07-04T04:44:32.958Z,99.90
2018-07-04T04:47:12.709Z,99.90
2018-07-04T04:49:53.390Z,99.90
2018-07-04T04:52:33.089Z,99.90
2018-07-04T04:55:13.088Z,99.90
2018-07-04T04:57:52.834Z,99.90
2018-07-04T05:00:32.384Z,99.90
2018-07-04T05:03:12.083Z,99.90
2018-07-04T05:05:51.951Z,99.90
2018-07-04T05:08:32.067Z,99.90
2018-07-04T05:11:11.712Z,99.90
2018-07-04T05:13:51.439Z,99.90
2018-07-04T05:16:31.050Z,99.90
2018-07-04T05:19:10.695Z,99.90
2018-07-04T05:21:50.300Z,99.90
2018-07-04T05:24:29.904Z,99.90
2018-07-04T05:27:09.773Z,99.90
2018-07-04T05:29:49.515Z,99.90
2018-07-04T05:32:29.242Z,99.90
2018-07-04T05:35:08.797Z,99.90
2018-07-04T05:40:22.098Z,99.90
2018-07-04T05:43:01.820Z,99.90
2018-07-04T05:45:41.461Z,99.90
2018-07-04T05:48:21.322Z,99.40
2018-07-04T05:51:01.216Z,99.00
2018-07-04T05:53:41.418Z,99.20
2018-07-04T05:56:21.215Z,98.90
2018-07-04T05:59:00.805Z,98.70
2018-07-04T06:01:40.333Z,98.40
2018-07-04T06:04:20.260Z,98.50
2018-07-04T06:06:59.855Z,98.60
2018-07-04T06:09:39.558Z,98.70
2018-07-04T06:14:53.065Z,98.10
2018-07-04T06:17:32.648Z,98.00
2018-07-04T06:20:12.370Z,97.40
2018-07-04T06:22:53.097Z,96.80
2018-07-04T06:25:32.775Z,97.10
2018-07-04T06:28:12.581Z,96.90
2018-07-04T06:30:52.357Z,96.70
2018-07-04T06:33:32.196Z,96.70
2018-07-04T06:36:12.023Z,96.80
2018-07-04T06:38:39.301Z,96.60
2018-07-04T06:41:06.612Z,96.50
2018-07-04T06:43:34.665Z,95.80
2018-07-04T06:48:30.205Z,96.10
2018-07-04T06:50:57.526Z,96.00
2018-07-04T06:53:24.808Z,96.10
2018-07-04T06:55:52.095Z,95.50
2018-07-04T06:58:19.389Z,95.10
2018-07-04T07:00:46.736Z,95.40
2018-07-04T07:03:26.326Z,94.90
2018-07-04T07:06:06.210Z,94.80
2018-07-04T07:08:45.743Z,94.50
2018-07-04T07:11:25.200Z,94.80
2018-07-04T07:14:04.863Z,93.90
2018-07-04T07:16:44.928Z,93.80
2018-07-04T07:19:25.304Z,93.80
2018-07-04T07:22:04.941Z,93.30
2018-07-04T07:24:44.459Z,93.30
2018-07-04T07:27:24.164Z,93.00
2018-07-04T07:30:03.690Z,92.70
2018-07-04T07:32:43.094Z,91.90
2018-07-04T07:35:22.767Z,91.50
2018-07-04T07:38:02.529Z,91.40
2018-07-04T07:40:42.036Z,91.70
2018-07-04T07:43:21.730Z,91.40
2018-07-04T07:46:01.315Z,90.70
2018-07-04T07:48:40.844Z,90.20
2018-07-04T07:51:20.722Z,89.50
2018-07-04T07:54:00.330Z,88.40
2018-07-04T07:56:39.920Z,88.60
2018-07-04T07:59:19.500Z,88.30
2018-07-04T08:01:59.113Z,89.60
2018-07-04T08:04:38.611Z,87.60
2018-07-04T08:07:18.154Z,89.00
2018-07-04T08:09:57.755Z,86.30
2018-07-04T08:12:37.326Z,86.90
2018-07-04T08:15:16.934Z,85.70
2018-07-04T08:17:57.009Z,86.60
2018-07-04T08:20:36.738Z,88.20
2018-07-04T08:23:16.541Z,88.50
2018-07-04T08:25:56.384Z,85.20
2018-07-04T08:28:36.064Z,83.60
2018-07-04T08:31:15.945Z,83.80
2018-07-04T08:33:55.465Z,84.60
2018-07-04T08:36:35.114Z,83.50
2018-07-04T08:39:14.792Z,77.30
2018-07-04T08:41:54.244Z,78.50
2018-07-04T08:44:34.848Z,79.10
2018-07-04T08:49:49.004Z,79.10
2018-07-04T08:52:28.623Z,81.70
2018-07-04T08:55:08.135Z,78.90
2018-07-04T08:57:47.756Z,80.10
2018-07-04T09:00:27.245Z,80.40
2018-07-04T09:03:06.865Z,80.00
2018-07-04T09:05:46.384Z,79.70
2018-07-04T09:08:26.042Z,73.00
2018-07-04T09:11:05.542Z,75.50
2018-07-04T09:13:45.010Z,77.00
2018-07-04T09:16:24.780Z,77.00
2018-07-04T09:19:04.533Z,75.80
2018-07-04T09:21:44.238Z,74.40
2018-07-04T09:24:23.903Z,73.10
2018-07-04T09:27:03.465Z,73.20
2018-07-04T09:29:43.010Z,71.60
2018-07-04T09:32:22.584Z,71.80
2018-07-04T09:35:02.121Z,71.50
2018-07-04T09:37:41.607Z,70.00
2018-07-04T09:40:21.108Z,67.60
2018-07-04T09:43:00.766Z,68.80
2018-07-04T09:45:40.416Z,71.00
2018-07-04T09:48:19.955Z,73.10
2018-07-04T09:50:59.707Z,72.10
2018-07-04T09:53:39.381Z,77.70
2018-07-04T09:56:18.899Z,81.90
2018-07-04T09:58:58.550Z,89.30
2018-07-04T10:01:38.170Z,91.20
2018-07-04T10:04:17.663Z,91.70
2018-07-04T10:06:57.190Z,92.40
2018-07-04T10:09:37.225Z,92.50
2018-07-04T10:12:17.453Z,91.10
2018-07-04T10:14:57.010Z,92.60
2018-07-04T10:17:36.683Z,94.50
2018-07-04T10:20:16.268Z,95.10
2018-07-04T10:22:55.913Z,96.70
2018-07-04T10:25:35.402Z,98.70
2018-07-04T10:28:15.052Z,99.90
2018-07-04T10:30:54.610Z,99.70
2018-07-04T10:33:34.182Z,99.90
2018-07-04T10:36:13.707Z,99.90
2018-07-04T10:38:53.272Z,99.90
2018-07-04T10:41:32.972Z,99.90
2018-07-04T10:44:12.573Z,97.20
2018-07-04T10:46:52.107Z,99.70
2018-07-04T10:49:31.740Z,98.50
2018-07-04T10:52:11.366Z,99.90
2018-07-04T10:54:50.965Z,99.90
2018-07-04T10:57:30.510Z,99.90
2018-07-04T11:00:10.018Z,99.90
2018-07-04T11:02:49.579Z,99.90
2018-07-04T11:05:29.265Z,99.90
2018-07-04T11:08:09.516Z,99.90
2018-07-04T11:10:49.162Z,99.90
2018-07-04T11:13:28.820Z,99.90
2018-07-04T11:16:08.432Z,99.90
2018-07-04T11:18:48.084Z,99.90
2018-07-04T11:21:27.604Z,99.90
2018-07-04T11:24:07.546Z,99.90
2018-07-04T11:26:47.045Z,99.90
2018-07-04T11:29:26.437Z,99.90
2018-07-04T11:32:06.187Z,99.90
2018-07-04T11:34:45.807Z,99.90
2018-07-04T11:37:25.630Z,99.90
2018-07-04T11:40:05.341Z,99.90
2018-07-04T11:42:44.958Z,99.90
2018-07-04T11:45:24.591Z,99.90
2018-07-04T11:47:51.912Z,99.90
2018-07-04T11:50:19.390Z,99.90
2018-07-04T11:52:46.669Z,99.90
2018-07-04T11:55:14.016Z,99.90
2018-07-04T11:57:41.305Z,99.90
2018-07-04T12:00:08.651Z,99.90
2018-07-04T12:02:35.922Z,99.90
2018-07-04T12:05:15.715Z,99.90
2018-07-04T12:07:44.061Z,99.90
2018-07-04T12:10:11.345Z,99.90
2018-07-04T12:12:38.665Z,99.90
2018-07-04T12:15:06.002Z,99.90
2018-07-04T12:17:33.297Z,99.90
2018-07-04T12:20:00.585Z,99.90
2018-07-04T12:22:27.883Z,99.90
2018-07-04T12:24:55.193Z,99.90
2018-07-04T12:27:22.526Z,99.90
2018-07-04T12:29:49.815Z,99.90
2018-07-04T12:32:17.161Z,99.90
2018-07-04T12:34:45.128Z,99.90
2018-07-04T12:37:12.424Z,99.90
2018-07-04T12:39:39.758Z,99.90
2018-07-04T12:42:07.316Z,99.90
2018-07-04T12:44:34.621Z,99.90
2018-07-04T12:47:02.009Z,98.90
2018-07-04T12:49:29.459Z,99.90
2018-07-04T12:51:56.768Z,99.80
2018-07-04T12:56:34.346Z,98.80
2018-07-04T12:59:13.794Z,97.80
2018-07-04T13:01:53.428Z,98.60
2018-07-04T13:04:32.942Z,98.30
2018-07-04T13:07:12.830Z,98.10
2018-07-04T13:09:52.858Z,98.30
2018-07-04T13:12:32.554Z,98.40
2018-07-04T13:15:12.220Z,98.20
2018-07-04T13:17:52.121Z,96.90
2018-07-04T13:20:32.084Z,96.40
2018-07-04T13:23:11.512Z,96.50
2018-07-04T13:25:51.260Z,96.60
2018-07-04T13:28:31.073Z,98.70
2018-07-04T13:31:10.716Z,98.30
2018-07-04T13:33:50.371Z,96.80
2018-07-04T13:39:04.753Z,96.90
2018-07-04T13:41:44.689Z,95.70
2018-07-04T13:44:24.395Z,95.70
2018-07-04T13:47:04.098Z,96.00
2018-07-04T13:52:18.156Z,95.30
2018-07-04T13:54:57.687Z,95.70
2018-07-04T13:57:37.752Z,96.00
2018-07-04T14:00:17.318Z,94.50
2018-07-04T14:02:57.241Z,94.40
2018-07-04T14:05:36.854Z,93.80
2018-07-04T14:08:16.386Z,92.80
2018-07-04T14:10:55.945Z,92.10
2018-07-04T14:13:35.510Z,93.80
2018-07-04T14:16:15.090Z,94.40
2018-07-04T14:18:54.601Z,94.90
2018-07-04T14:21:34.109Z,93.20
2018-07-04T14:24:13.781Z,94.30
2018-07-04T14:26:53.363Z,95.40
2018-07-04T14:29:32.890Z,99.90
2018-07-04T14:32:12.658Z,99.90
2018-07-04T14:34:52.230Z,98.30
2018-07-04T14:40:05.531Z,98.10
2018-07-04T14:42:45.227Z,97.30
2018-07-04T14:45:24.839Z,98.50
2018-07-04T14:48:04.617Z,95.80
2018-07-04T14:50:44.450Z,95.40
2018-07-04T14:53:24.061Z,94.90
2018-07-04T14:56:04.666Z,94.80
2018-07-04T14:58:44.538Z,96.60
2018-07-04T15:01:24.166Z,98.60
2018-07-04T15:04:04.151Z,99.20
2018-07-04T15:06:43.837Z,99.20
2018-07-04T15:09:23.346Z,98.70
2018-07-04T15:12:02.985Z,99.90
2018-07-04T15:14:42.562Z,99.90
2018-07-04T15:17:22.076Z,99.90
2018-07-04T15:20:01.747Z,99.90
2018-07-04T15:22:41.274Z,99.90
2018-07-04T15:25:20.832Z,99.90
2018-07-04T15:28:00.511Z,99.90
2018-07-04T15:30:40.070Z,99.90
2018-07-04T15:33:19.730Z,99.90
2018-07-04T15:35:59.277Z,99.90
2018-07-04T15:38:38.848Z,99.90
2018-07-04T15:41:18.571Z,99.90
2018-07-04T15:43:58.596Z,99.90
2018-07-04T15:46:38.226Z,98.50
2018-07-04T15:49:18.610Z,98.50
2018-07-04T15:51:58.396Z,97.10
2018-07-04T15:54:38.484Z,98.40
2018-07-04T15:57:18.175Z,98.50
2018-07-04T15:59:57.704Z,98.30
2018-07-04T16:02:37.359Z,97.90
2018-07-04T16:05:16.957Z,97.30
2018-07-04T16:07:56.476Z,97.10
2018-07-04T16:10:36.180Z,96.40
2018-07-04T16:13:15.803Z,96.60
2018-07-04T16:15:55.654Z,96.70
2018-07-04T16:18:36.327Z,96.00
2018-07-04T16:21:15.874Z,96.90
2018-07-04T16:23:55.769Z,97.30
2018-07-04T16:26:35.307Z,97.30
2018-07-04T16:29:14.822Z,97.70
2018-07-04T16:31:54.364Z,98.10
2018-07-04T16:34:33.972Z,98.80
2018-07-04T16:37:13.596Z,99.70
2018-07-04T16:39:53.221Z,99.80
2018-07-04T16:42:32.742Z,99.90
2018-07-04T16:45:12.581Z,99.90
2018-07-04T16:47:52.312Z,99.90
2018-07-04T16:50:31.826Z,99.90
2018-07-04T16:53:11.363Z,99.90
2018-07-04T16:55:51.171Z,99.90
2018-07-04T16:58:30.703Z,99.90
2018-07-04T17:01:10.338Z,99.90
2018-07-04T17:03:50.013Z,99.90
2018-07-04T17:06:29.589Z,99.60
2018-07-04T17:09:09.170Z,99.10
2018-07-04T17:11:52.359Z,99.80
2018-07-04T17:17:36.448Z,99.90
2018-07-04T17:20:19.509Z,99.90
2018-07-04T17:22:59.636Z,99.90
2018-07-04T17:25:40.175Z,99.90
2018-07-04T17:28:20.042Z,99.90
2018-07-04T17:30:59.850Z,99.90
2018-07-04T17:33:39.808Z,99.90
2018-07-04T17:36:19.560Z,99.90
2018-07-04T17:38:59.125Z,99.90
2018-07-04T17:41:44.392Z,99.90
2018-07-04T17:44:24.573Z,99.90
2018-07-04T17:47:04.241Z,99.90
2018-07-04T17:49:43.932Z,99.90
2018-07-04T17:57:40.885Z,99.90
2018-07-04T18:00:20.452Z,99.90
2018-07-04T18:03:04.947Z,99.90
2018-07-04T18:05:54.590Z,99.90
2018-07-04T18:08:34.221Z,99.90
2018-07-04T18:14:23.712Z,99.90
2018-07-04T18:17:04.124Z,99.90
2018-07-04T18:19:43.777Z,99.90
2018-07-04T18:22:23.487Z,99.90
2018-07-04T18:30:36.234Z,99.90
2018-07-04T18:33:15.862Z,99.90
2018-07-04T18:35:55.472Z,99.90
2018-07-04T18:38:34.953Z,99.90
2018-07-04T18:41:14.522Z,99.90
2018-07-04T18:43:54.166Z,99.90
2018-07-04T18:46:33.678Z,99.90
2018-07-04T18:49:13.331Z,99.90
2018-07-04T18:54:42.098Z,99.90
2018-07-04T18:57:21.650Z,99.90
2018-07-04T19:00:06.228Z,99.90
2018-07-04T19:02:48.043Z,99.90
2018-07-04T19:05:35.775Z,99.90
2018-07-04T19:08:22.064Z,99.90
2018-07-04T19:11:06.366Z,99.90
2018-07-04T19:13:45.924Z,99.90
2018-07-04T19:16:25.520Z,99.90
2018-07-04T19:19:05.342Z,99.90
2018-07-04T19:21:44.901Z,99.90
2018-07-04T19:24:24.588Z,99.90
2018-07-04T19:27:04.613Z,99.90
2018-07-04T19:29:44.414Z,99.90
2018-07-04T19:32:23.999Z,99.90
2018-07-04T19:35:03.603Z,99.90
2018-07-04T19:37:43.154Z,99.90
2018-07-04T19:42:57.013Z,99.90
2018-07-04T19:45:44.009Z,99.90
2018-07-04T19:48:23.758Z,99.90
2018-07-04T19:51:03.416Z,99.90
2018-07-04T19:53:43.713Z,99.90
2018-07-04T19:56:23.354Z,99.90
2018-07-04T19:59:03.185Z,99.90
2018-07-04T20:01:42.819Z,99.90
2018-07-04T20:04:22.373Z,99.90
2018-07-04T20:07:03.963Z,99.90
2018-07-04T20:09:43.712Z,99.90
2018-07-04T20:12:23.220Z,99.90
2018-07-04T20:15:02.773Z,99.90
2018-07-04T20:17:42.281Z,99.90
2018-07-04T20:20:22.134Z,99.90
2018-07-04T20:23:01.796Z,99.90
2018-07-04T20:25:41.522Z,99.90
2018-07-04T20:28:21.047Z,99.90
2018-07-04T20:31:00.835Z,99.90
2018-07-04T20:33:40.316Z,99.90
2018-07-04T20:36:20.076Z,99.90
2018-07-04T20:38:59.676Z,99.90
2018-07-04T20:41:39.224Z,99.90
2018-07-04T20:44:19.441Z,99.90
2018-07-04T20:46:58.997Z,99.90
2018-07-04T20:49:38.524Z,99.90
2018-07-04T20:52:18.012Z,99.90
2018-07-04T20:54:57.588Z,99.90
2018-07-04T20:57:37.002Z,99.90
2018-07-04T21:00:16.749Z,99.90
2018-07-04T21:02:56.369Z,99.90
2018-07-04T21:05:35.883Z,99.90
2018-07-04T21:08:15.455Z,99.90
2018-07-04T21:10:55.202Z,99.90
2018-07-04T21:13:34.785Z,99.90
2018-07-04T21:16:14.269Z,99.90
2018-07-04T21:18:53.869Z,99.90
2018-07-04T21:21:33.400Z,99.90
2018-07-04T21:24:13.069Z,99.90
2018-07-04T21:26:52.627Z,99.90
2018-07-04T21:29:32.275Z,99.90
2018-07-04T21:32:11.839Z,99.90
2018-07-04T21:34:51.387Z,99.90
2018-07-04T21:37:30.999Z,99.90
2018-07-04T21:40:10.480Z,99.90
2018-07-04T21:42:50.239Z,99.90
2018-07-04T21:45:29.905Z,99.90
2018-07-04T21:48:09.413Z,99.90
2018-07-04T21:50:48.816Z,99.90
2018-07-04T21:53:28.592Z,99.90
2018-07-04T21:56:08.233Z,99.90
2018-07-04T21:58:47.912Z,99.90
2018-07-04T22:01:27.458Z,99.90
2018-07-04T22:04:07.286Z,99.90
2018-07-04T22:06:46.573Z,99.90
2018-07-04T22:09:26.245Z,99.90
2018-07-04T22:12:05.986Z,99.90
2018-07-04T22:14:45.825Z,99.90
2018-07-04T22:17:25.559Z,99.90
2018-07-04T22:20:05.192Z,99.90
2018-07-04T22:22:44.904Z,99.90
2018-07-04T22:25:24.626Z,99.90
2018-07-04T22:28:04.174Z,99.90
2018-07-04T22:30:43.811Z,99.90
2018-07-04T22:33:23.967Z,99.90
2018-07-04T22:36:03.560Z,99.90
2018-07-04T22:38:43.857Z,99.90
2018-07-04T22:41:23.551Z,99.90
2018-07-04T22:44:03.079Z,99.90
2018-07-04T22:46:42.612Z,99.90
2018-07-04T22:49:22.275Z,99.90
2018-07-04T22:52:02.199Z,99.90
2018-07-04T22:54:42.036Z,99.90
2018-07-04T22:57:22.369Z,99.90
2018-07-04T23:00:02.091Z,99.90
2018-07-04T23:02:41.936Z,99.90
2018-07-04T23:05:21.981Z,99.90
2018-07-04T23:08:01.678Z,99.90
2018-07-04T23:10:41.222Z,99.90
2018-07-04T23:13:20.778Z,99.90
2018-07-04T23:16:00.446Z,99.90
2018-07-04T23:18:39.920Z,99.90
2018-07-04T23:21:19.804Z,99.90
2018-07-04T23:23:59.797Z,99.90
2018-07-04T23:26:39.599Z,99.90
2018-07-04T23:29:19.278Z,99.90
2018-07-04T23:31:58.823Z,99.90
2018-07-04T23:34:38.389Z,99.90
2018-07-04T23:37:17.914Z,99.90
2018-07-04T23:39:57.567Z,99.90
2018-07-04T23:42:37.653Z,99.90
2018-07-04T23:45:17.385Z,99.90
2018-07-04T23:47:57.364Z,99.90
2018-07-04T23:50:37.246Z,99.90
2018-07-04T23:53:16.809Z,99.90
2018-07-04T23:55:56.310Z,99.90
2018-07-04T23:58:35.820Z,99.90
